PWSweather.com
Personal Weather Stations
Station Observations
ISARDEGN48
BittiIT 08021

BittiIT 08021

Lat: 40.4805, Lon: 9.3887

Elevation: 1804

Station Type: La Crosse WS2355

http://meteobitti.altervista.org

High Low Average
Temperature 52.0°F11.1°C 44.4°F6.9°C 48.6°F9.2°C
Dew Point 47.5°F8.6°C 38.6°F3.7°C 43.0°F6.1°C
Winds 13.0 mph 20.9 kmh Calm Calm 2.0 mph E3.2 kmh E
Wind Gusts 21.3 mph34.3 kmh -- 6.0 mph9.7 kmh
Humidity 90% 64% 81%
Pressure 29.65 in1004.1 mb 29.48 in998.3 mb -
Precipitation 0.10 in2.5 mm - -
Hour Temp Dew Point Humidity Winds Wind Gusts Pressure Precip Precip Rate Daily Precip Total
12:00 AM 47.5°F8.6°C 41.6°F5.3°C 80% 5.4 mph SE8.7 kmh SE 10.3 mph16.6 kmh 29.65 in1004.1 mb 0.00 in0.0 mm 0.00 in0.0 mm 0.00 in0.0 mm
12:05 AM 47.3°F8.5°C 41.5°F5.3°C 80% 4.7 mph S7.6 kmh S 9.8 mph15.8 kmh 29.65 in1004.1 mb 0.00 in0.0 mm 0.00 in0.0 mm 0.00 in0.0 mm
12:10 AM 47.3°F8.5°C 41.5°F5.3°C 80% 6.7 mph S10.8 kmh S 11.9 mph19.2 kmh 29.65 in1004.1 mb 0.00 in0.0 mm 0.00 in0.0 mm 0.00 in0.0 mm
12:15 AM 47.3°F8.5°C 41.5°F5.3°C 80% 1.3 mph SSW2.1 kmh SSW 11.9 mph19.2 kmh 29.65 in1004.1 mb 0.00 in0.0 mm 0.00 in0.0 mm 0.00 in0.0 mm
12:20 AM 47.3°F8.5°C 41.5°F5.3°C 80% 2.5 mph S4.0 kmh S 10.3 mph16.6 kmh 29.65 in1004.1 mb 0.00 in0.0 mm 0.00 in0.0 mm 0.00 in0.0 mm
12:25 AM 47.3°F8.5°C 41.1°F5.1°C 79% Calm Calm 9.4 mph15.1 kmh 29.65 in1004.1 mb 0.00 in0.0 mm 0.00 in0.0 mm 0.00 in0.0 mm
12:30 AM 47.1°F8.4°C 40.6°F4.8°C 78% 6.9 mph SSW11.1 kmh SSW 11.2 mph18.0 kmh 29.65 in1004.1 mb 0.00 in0.0 mm 0.00 in0.0 mm 0.00 in0.0 mm
12:35 AM 47.1°F8.4°C 40.6°F4.8°C 78% 9.6 mph SSW15.4 kmh SSW 11.4 mph18.3 kmh 29.65 in1004.1 mb 0.00 in0.0 mm 0.00 in0.0 mm 0.00 in0.0 mm
12:40 AM 47.3°F8.5°C 40.4°F4.7°C 77% 3.8 mph SSW6.1 kmh SSW 11.4 mph18.3 kmh 29.65 in1004.1 mb 0.00 in0.0 mm 0.00 in0.0 mm 0.00 in0.0 mm
12:45 AM 47.3°F8.5°C 40.4°F4.7°C 77% 8.7 mph SSW14.0 kmh SSW 13.6 mph21.9 kmh 29.65 in1004.1 mb 0.00 in0.0 mm 0.00 in0.0 mm 0.00 in0.0 mm
12:50 AM 47.5°F8.6°C 40.6°F4.8°C 77% 2.9 mph S4.7 kmh S 13.9 mph22.4 kmh 29.65 in1004.1 mb 0.00 in0.0 mm 0.00 in0.0 mm 0.00 in0.0 mm
12:55 AM 47.5°F8.6°C 40.6°F4.8°C 77% Calm Calm 13.9 mph22.4 kmh 29.65 in1004.1 mb 0.00 in0.0 mm 0.00 in0.0 mm 0.00 in0.0 mm
01:00 AM 47.3°F8.5°C 40.4°F4.7°C 77% 8.9 mph S14.3 kmh S 9.6 mph15.4 kmh 29.65 in1004.1 mb 0.00 in0.0 mm 0.00 in0.0 mm 0.00 in0.0 mm
01:05 AM 47.3°F8.5°C 40.4°F4.7°C 77% 8.9 mph ESE14.3 kmh ESE 13.9 mph22.4 kmh 29.64 in1003.7 mb 0.00 in0.0 mm 0.00 in0.0 mm 0.00 in0.0 mm
01:10 AM 47.3°F8.5°C 40.1°F4.5°C 76% 0.9 mph SE1.4 kmh SE 13.9 mph22.4 kmh 29.64 in1003.7 mb 0.00 in0.0 mm 0.00 in0.0 mm 0.00 in0.0 mm
01:15 AM 47.3°F8.5°C 40.1°F4.5°C 76% 6.7 mph ESE10.8 kmh ESE 7.8 mph12.6 kmh 29.64 in1003.7 mb 0.00 in0.0 mm 0.00 in0.0 mm 0.00 in0.0 mm
01:20 AM 47.5°F8.6°C 39.9°F4.4°C 75% 8.5 mph E13.7 kmh E 11.9 mph19.2 kmh 29.64 in1003.7 mb 0.00 in0.0 mm 0.00 in0.0 mm 0.00 in0.0 mm
01:25 AM 47.8°F8.8°C 40.2°F4.6°C 75% 4.0 mph E6.4 kmh E 16.1 mph25.9 kmh 29.63 in1003.4 mb 0.00 in0.0 mm 0.00 in0.0 mm 0.00 in0.0 mm
01:30 AM 47.8°F8.8°C 40.2°F4.6°C 75% 4.0 mph ENE6.4 kmh ENE 16.1 mph25.9 kmh 29.63 in1003.4 mb 0.00 in0.0 mm 0.00 in0.0 mm 0.00 in0.0 mm
01:35 AM 47.8°F8.8°C 40.2°F4.6°C 75% 8.9 mph NE14.3 kmh NE 15.2 mph24.5 kmh 29.63 in1003.4 mb 0.00 in0.0 mm 0.00 in0.0 mm 0.00 in0.0 mm
01:40 AM 47.7°F8.7°C 40.4°F4.7°C 76% 13.0 mph ENE20.9 kmh ENE 14.3 mph23.0 kmh 29.63 in1003.4 mb 0.00 in0.0 mm 0.00 in0.0 mm 0.00 in0.0 mm
01:45 AM 47.5°F8.6°C 40.2°F4.6°C 76% 3.6 mph NE5.8 kmh NE 17.0 mph27.4 kmh 29.63 in1003.4 mb 0.00 in0.0 mm 0.00 in0.0 mm 0.00 in0.0 mm
01:50 AM 47.3°F8.5°C 40.1°F4.5°C 76% 2.5 mph ENE4.0 kmh ENE 17.0 mph27.4 kmh 29.63 in1003.4 mb 0.00 in0.0 mm 0.00 in0.0 mm 0.00 in0.0 mm
01:55 AM 47.1°F8.4°C 39.6°F4.2°C 75% 4.0 mph SE6.4 kmh SE 8.3 mph13.4 kmh 29.64 in1003.7 mb 0.00 in0.0 mm 0.00 in0.0 mm 0.00 in0.0 mm
02:00 AM 47.3°F8.5°C 39.4°F4.1°C 74% 7.6 mph E12.2 kmh E 8.5 mph13.7 kmh 29.63 in1003.4 mb 0.00 in0.0 mm 0.00 in0.0 mm 0.00 in0.0 mm
02:05 AM 47.5°F8.6°C 39.6°F4.2°C 74% 7.8 mph ENE12.6 kmh ENE 21.3 mph34.3 kmh 29.63 in1003.4 mb 0.00 in0.0 mm 0.00 in0.0 mm 0.00 in0.0 mm
02:10 AM 47.7°F8.7°C 39.4°F4.1°C 73% 7.4 mph NE11.9 kmh NE 21.3 mph34.3 kmh 29.63 in1003.4 mb 0.00 in0.0 mm 0.00 in0.0 mm 0.00 in0.0 mm
02:15 AM 47.8°F8.8°C 39.9°F4.4°C 74% 6.5 mph NE10.5 kmh NE 19.5 mph31.4 kmh 29.63 in1003.4 mb 0.00 in0.0 mm 0.00 in0.0 mm 0.00 in0.0 mm
02:20 AM 47.8°F8.8°C 39.9°F4.4°C 74% 4.9 mph NE7.9 kmh NE 20.1 mph32.3 kmh 29.63 in1003.4 mb 0.00 in0.0 mm 0.00 in0.0 mm 0.00 in0.0 mm
02:25 AM 47.8°F8.8°C 40.2°F4.6°C 75% 1.1 mph NE1.8 kmh NE 20.1 mph32.3 kmh 29.63 in1003.4 mb 0.00 in0.0 mm 0.00 in0.0 mm 0.00 in0.0 mm
02:30 AM 47.5°F8.6°C 39.9°F4.4°C 75% 2.0 mph ENE3.2 kmh ENE 13.0 mph20.9 kmh 29.64 in1003.7 mb 0.00 in0.0 mm 0.00 in0.0 mm 0.00 in0.0 mm
02:35 AM 47.5°F8.6°C 39.9°F4.4°C 75% 10.7 mph SE17.2 kmh SE 10.7 mph17.2 kmh 29.64 in1003.7 mb 0.00 in0.0 mm 0.00 in0.0 mm 0.00 in0.0 mm
02:40 AM 47.7°F8.7°C 40.1°F4.5°C 75% 2.7 mph ESE4.3 kmh ESE 10.7 mph17.2 kmh 29.64 in1003.7 mb 0.00 in0.0 mm 0.00 in0.0 mm 0.00 in0.0 mm
02:45 AM 47.7°F8.7°C 39.7°F4.3°C 74% 7.6 mph ESE12.2 kmh ESE 10.7 mph17.2 kmh 29.63 in1003.4 mb 0.00 in0.0 mm 0.00 in0.0 mm 0.00 in0.0 mm
02:50 AM 47.8°F8.8°C 39.9°F4.4°C 74% 7.4 mph ENE11.9 kmh ENE 12.3 mph19.8 kmh 29.63 in1003.4 mb 0.00 in0.0 mm 0.00 in0.0 mm 0.00 in0.0 mm
02:55 AM 47.7°F8.7°C 39.4°F4.1°C 73% 2.2 mph NE3.5 kmh NE 12.3 mph19.8 kmh 29.63 in1003.4 mb 0.00 in0.0 mm 0.00 in0.0 mm 0.00 in0.0 mm
03:00 AM 47.5°F8.6°C 39.2°F4.0°C 73% Calm Calm 10.1 mph16.3 kmh 29.64 in1003.7 mb 0.00 in0.0 mm 0.00 in0.0 mm 0.00 in0.0 mm
03:05 AM 47.5°F8.6°C 38.9°F3.8°C 72% 2.5 mph SSW4.0 kmh SSW 9.2 mph14.8 kmh 29.64 in1003.7 mb 0.00 in0.0 mm 0.00 in0.0 mm 0.00 in0.0 mm
03:10 AM 47.7°F8.7°C 39.0°F3.9°C 72% 1.3 mph SW2.1 kmh SW 9.8 mph15.8 kmh 29.64 in1003.7 mb 0.00 in0.0 mm 0.00 in0.0 mm 0.00 in0.0 mm
03:15 AM 47.7°F8.7°C 39.0°F3.9°C 72% Calm Calm 9.8 mph15.8 kmh 29.64 in1003.7 mb 0.00 in0.0 mm 0.00 in0.0 mm 0.00 in0.0 mm
03:20 AM 47.5°F8.6°C 38.9°F3.8°C 72% Calm Calm 4.7 mph7.6 kmh 29.63 in1003.4 mb 0.00 in0.0 mm 0.00 in0.0 mm 0.00 in0.0 mm
03:25 AM 47.3°F8.5°C 39.1°F3.9°C 73% 1.3 mph S2.1 kmh S 4.7 mph7.6 kmh 29.63 in1003.4 mb 0.00 in0.0 mm 0.00 in0.0 mm 0.00 in0.0 mm
03:30 AM 46.9°F8.3°C 38.7°F3.7°C 73% 3.6 mph SW5.8 kmh SW 5.6 mph9.0 kmh 29.63 in1003.4 mb 0.00 in0.0 mm 0.00 in0.0 mm 0.00 in0.0 mm
03:35 AM 46.8°F8.2°C 38.9°F3.8°C 74% 0.7 mph SW1.1 kmh SW 5.6 mph9.0 kmh 29.63 in1003.4 mb 0.00 in0.0 mm 0.00 in0.0 mm 0.00 in0.0 mm
03:40 AM 46.6°F8.1°C 38.8°F3.8°C 74% Calm Calm 3.1 mph5.0 kmh 29.64 in1003.7 mb 0.00 in0.0 mm 0.00 in0.0 mm 0.00 in0.0 mm
03:45 AM 46.4°F8.0°C 38.6°F3.7°C 74% Calm Calm 4.9 mph7.9 kmh 29.64 in1003.7 mb 0.00 in0.0 mm 0.00 in0.0 mm 0.00 in0.0 mm
03:50 AM 46.2°F7.9°C 38.8°F3.8°C 75% 1.3 mph WSW2.1 kmh WSW 4.9 mph7.9 kmh 29.64 in1003.7 mb 0.00 in0.0 mm 0.00 in0.0 mm 0.00 in0.0 mm
03:55 AM 46.2°F7.9°C 39.1°F3.9°C 76% 2.2 mph SW3.5 kmh SW 5.8 mph9.3 kmh 29.64 in1003.7 mb 0.00 in0.0 mm 0.00 in0.0 mm 0.00 in0.0 mm
04:00 AM 46.2°F7.9°C 39.1°F3.9°C 76% 1.1 mph SW1.8 kmh SW 5.8 mph9.3 kmh 29.64 in1003.7 mb 0.00 in0.0 mm 0.00 in0.0 mm 0.00 in0.0 mm
04:05 AM 46.2°F7.9°C 39.1°F3.9°C 76% 4.3 mph SW6.9 kmh SW 8.5 mph13.7 kmh 29.64 in1003.7 mb 0.00 in0.0 mm 0.00 in0.0 mm 0.00 in0.0 mm
04:10 AM 46.9°F8.3°C 39.1°F3.9°C 74% 11.6 mph SSW18.7 kmh SSW 16.8 mph27.0 kmh 29.64 in1003.7 mb 0.00 in0.0 mm 0.00 in0.0 mm 0.00 in0.0 mm
04:15 AM 47.5°F8.6°C 39.2°F4.0°C 73% 8.1 mph SSW13.0 kmh SSW 16.8 mph27.0 kmh 29.63 in1003.4 mb 0.00 in0.0 mm 0.00 in0.0 mm 0.00 in0.0 mm
04:20 AM 47.7°F8.7°C 39.4°F4.1°C 73% Calm Calm 14.5 mph23.3 kmh 29.62 in1003.0 mb 0.00 in0.0 mm 0.00 in0.0 mm 0.00 in0.0 mm
04:25 AM 47.5°F8.6°C 39.2°F4.0°C 73% 3.6 mph E5.8 kmh E 11.6 mph18.7 kmh 29.62 in1003.0 mb 0.00 in0.0 mm 0.00 in0.0 mm 0.00 in0.0 mm
04:30 AM 47.1°F8.4°C 39.2°F4.0°C 74% 4.7 mph NE7.6 kmh NE 11.6 mph18.7 kmh 29.62 in1003.0 mb 0.00 in0.0 mm 0.00 in0.0 mm 0.00 in0.0 mm
04:35 AM 46.9°F8.3°C 39.1°F3.9°C 74% Calm Calm 10.5 mph16.9 kmh 29.62 in1003.0 mb 0.00 in0.0 mm 0.00 in0.0 mm 0.00 in0.0 mm
04:40 AM 46.6°F8.1°C 39.1°F3.9°C 75% 2.5 mph E4.0 kmh E 5.1 mph8.2 kmh 29.62 in1003.0 mb 0.00 in0.0 mm 0.00 in0.0 mm 0.00 in0.0 mm
04:45 AM 46.6°F8.1°C 39.4°F4.1°C 76% 8.9 mph SSW14.3 kmh SSW 9.2 mph14.8 kmh 29.62 in1003.0 mb 0.00 in0.0 mm 0.00 in0.0 mm 0.00 in0.0 mm
04:50 AM 46.6°F8.1°C 39.4°F4.1°C 76% 7.4 mph SW11.9 kmh SW 9.8 mph15.8 kmh 29.62 in1003.0 mb 0.00 in0.0 mm 0.00 in0.0 mm 0.00 in0.0 mm
04:55 AM 46.9°F8.3°C 39.4°F4.1°C 75% 4.0 mph SSW6.4 kmh SSW 10.5 mph16.9 kmh 29.61 in1002.7 mb 0.00 in0.0 mm 0.00 in0.0 mm 0.00 in0.0 mm
05:00 AM 46.9°F8.3°C 39.8°F4.3°C 76% 6.5 mph SSW10.5 kmh SSW 10.7 mph17.2 kmh 29.61 in1002.7 mb 0.00 in0.0 mm 0.00 in0.0 mm 0.00 in0.0 mm
05:05 AM 46.6°F8.1°C 39.4°F4.1°C 76% 10.5 mph SSW16.9 kmh SSW 13.4 mph21.6 kmh 29.61 in1002.7 mb 0.00 in0.0 mm 0.00 in0.0 mm 0.00 in0.0 mm
05:10 AM 46.9°F8.3°C 39.8°F4.3°C 76% 3.4 mph SSW5.5 kmh SSW 13.4 mph21.6 kmh 29.61 in1002.7 mb 0.00 in0.0 mm 0.00 in0.0 mm 0.00 in0.0 mm
05:15 AM 47.1°F8.4°C 39.9°F4.4°C 76% 2.2 mph SSW3.5 kmh SSW 11.6 mph18.7 kmh 29.61 in1002.7 mb 0.00 in0.0 mm 0.00 in0.0 mm 0.00 in0.0 mm
05:20 AM 46.9°F8.3°C 39.8°F4.3°C 76% Calm Calm 6.5 mph10.5 kmh 29.61 in1002.7 mb 0.00 in0.0 mm 0.00 in0.0 mm 0.00 in0.0 mm
05:25 AM 46.6°F8.1°C 39.4°F4.1°C 76% 1.3 mph WSW2.1 kmh WSW 2.7 mph4.3 kmh 29.61 in1002.7 mb 0.00 in0.0 mm 0.00 in0.0 mm 0.00 in0.0 mm
05:30 AM 46.2°F7.9°C 39.4°F4.1°C 77% Calm Calm 2.2 mph3.5 kmh 29.61 in1002.7 mb 0.00 in0.0 mm 0.00 in0.0 mm 0.00 in0.0 mm
05:35 AM 46.0°F7.8°C 39.6°F4.2°C 78% Calm Calm 2.5 mph4.0 kmh 29.61 in1002.7 mb 0.00 in0.0 mm 0.00 in0.0 mm 0.00 in0.0 mm
05:40 AM 45.7°F7.6°C 39.6°F4.2°C 79% Calm Calm 2.5 mph4.0 kmh 29.61 in1002.7 mb 0.00 in0.0 mm 0.00 in0.0 mm 0.00 in0.0 mm
05:45 AM 45.7°F7.6°C 39.6°F4.2°C 79% 0.9 mph SW1.4 kmh SW 2.5 mph4.0 kmh 29.61 in1002.7 mb 0.00 in0.0 mm 0.00 in0.0 mm 0.00 in0.0 mm
05:50 AM 45.5°F7.5°C 39.4°F4.1°C 79% 2.0 mph WSW3.2 kmh WSW 3.4 mph5.5 kmh 29.61 in1002.7 mb 0.00 in0.0 mm 0.00 in0.0 mm 0.00 in0.0 mm
05:55 AM 45.3°F7.4°C 39.2°F4.0°C 79% 0.9 mph WSW1.4 kmh WSW 4.7 mph7.6 kmh 29.60 in1002.4 mb 0.00 in0.0 mm 0.00 in0.0 mm 0.00 in0.0 mm
06:00 AM 45.1°F7.3°C 39.4°F4.1°C 80% 4.0 mph SW6.4 kmh SW 7.4 mph11.9 kmh 29.61 in1002.7 mb 0.00 in0.0 mm 0.00 in0.0 mm 0.00 in0.0 mm
06:05 AM 45.1°F7.3°C 39.4°F4.1°C 80% 4.0 mph SW6.4 kmh SW 7.4 mph11.9 kmh 29.60 in1002.4 mb 0.00 in0.0 mm 0.00 in0.0 mm 0.00 in0.0 mm
06:10 AM 45.1°F7.3°C 39.4°F4.1°C 80% 6.3 mph SW10.1 kmh SW 7.8 mph12.6 kmh 29.60 in1002.4 mb 0.00 in0.0 mm 0.00 in0.0 mm 0.00 in0.0 mm
06:15 AM 45.3°F7.4°C 39.6°F4.2°C 80% 4.9 mph SW7.9 kmh SW 8.3 mph13.4 kmh 29.61 in1002.7 mb 0.00 in0.0 mm 0.00 in0.0 mm 0.00 in0.0 mm
06:20 AM 45.3°F7.4°C 39.6°F4.2°C 80% 3.4 mph SW5.5 kmh SW 10.3 mph16.6 kmh 29.61 in1002.7 mb 0.00 in0.0 mm 0.00 in0.0 mm 0.00 in0.0 mm
06:25 AM 45.3°F7.4°C 39.6°F4.2°C 80% 2.0 mph SW3.2 kmh SW 10.3 mph16.6 kmh 29.61 in1002.7 mb 0.00 in0.0 mm 0.00 in0.0 mm 0.00 in0.0 mm
06:30 AM 45.3°F7.4°C 39.6°F4.2°C 80% 6.9 mph SW11.1 kmh SW 8.3 mph13.4 kmh 29.61 in1002.7 mb 0.00 in0.0 mm 0.00 in0.0 mm 0.00 in0.0 mm
06:35 AM 45.1°F7.3°C 39.4°F4.1°C 80% Calm Calm 8.3 mph13.4 kmh 29.60 in1002.4 mb 0.00 in0.0 mm 0.00 in0.0 mm 0.00 in0.0 mm
06:40 AM 45.1°F7.3°C 39.7°F4.3°C 81% Calm Calm 5.4 mph8.7 kmh 29.60 in1002.4 mb 0.00 in0.0 mm 0.00 in0.0 mm 0.00 in0.0 mm
06:45 AM 45.0°F7.2°C 39.5°F4.2°C 81% 1.1 mph SW1.8 kmh SW 4.3 mph6.9 kmh 29.60 in1002.4 mb 0.00 in0.0 mm 0.00 in0.0 mm 0.00 in0.0 mm
06:50 AM 44.6°F7.0°C 39.1°F3.9°C 81% 1.3 mph SW2.1 kmh SW 5.6 mph9.0 kmh 29.60 in1002.4 mb 0.00 in0.0 mm 0.00 in0.0 mm 0.00 in0.0 mm
06:55 AM 44.4°F6.9°C 39.0°F3.9°C 81% 4.9 mph SW7.9 kmh SW 7.8 mph12.6 kmh 29.60 in1002.4 mb 0.00 in0.0 mm 0.00 in0.0 mm 0.00 in0.0 mm
07:00 AM 45.0°F7.2°C 39.2°F4.0°C 80% 4.9 mph SW7.9 kmh SW 10.5 mph16.9 kmh 29.60 in1002.4 mb 0.00 in0.0 mm 0.00 in0.0 mm 0.00 in0.0 mm
07:05 AM 45.3°F7.4°C 39.2°F4.0°C 79% 6.0 mph SW9.7 kmh SW 10.5 mph16.9 kmh 29.60 in1002.4 mb 0.00 in0.0 mm 0.00 in0.0 mm 0.00 in0.0 mm
07:10 AM 45.9°F7.7°C 39.1°F3.9°C 77% 1.3 mph SW2.1 kmh SW 9.6 mph15.4 kmh 29.60 in1002.4 mb 0.00 in0.0 mm 0.00 in0.0 mm 0.00 in0.0 mm
07:15 AM 46.0°F7.8°C 39.3°F4.1°C 77% Calm Calm 8.9 mph14.3 kmh 29.60 in1002.4 mb 0.00 in0.0 mm 0.00 in0.0 mm 0.00 in0.0 mm
07:20 AM 46.0°F7.8°C 39.3°F4.1°C 77% 2.0 mph SW3.2 kmh SW 8.3 mph13.4 kmh 29.60 in1002.4 mb 0.00 in0.0 mm 0.00 in0.0 mm 0.00 in0.0 mm
07:25 AM 45.9°F7.7°C 39.1°F3.9°C 77% 4.7 mph SSW7.6 kmh SSW 4.9 mph7.9 kmh 29.61 in1002.7 mb 0.00 in0.0 mm 0.00 in0.0 mm 0.00 in0.0 mm
07:30 AM 46.0°F7.8°C 39.3°F4.1°C 77% 2.0 mph SSW3.2 kmh SSW 6.3 mph10.1 kmh 29.61 in1002.7 mb 0.00 in0.0 mm 0.00 in0.0 mm 0.00 in0.0 mm
07:35 AM 45.7°F7.6°C 39.2°F4.0°C 78% 1.8 mph SSW2.9 kmh SSW 6.9 mph11.1 kmh 29.61 in1002.7 mb 0.00 in0.0 mm 0.00 in0.0 mm 0.00 in0.0 mm
07:40 AM 46.0°F7.8°C 39.6°F4.2°C 78% 1.6 mph SSW2.6 kmh SSW 6.9 mph11.1 kmh 29.61 in1002.7 mb 0.00 in0.0 mm 0.00 in0.0 mm 0.00 in0.0 mm
07:45 AM 45.7°F7.6°C 39.2°F4.0°C 78% Calm Calm 4.0 mph6.4 kmh 29.61 in1002.7 mb 0.00 in0.0 mm 0.00 in0.0 mm 0.00 in0.0 mm
07:50 AM 45.7°F7.6°C 39.2°F4.0°C 78% 2.5 mph SW4.0 kmh SW 6.3 mph10.1 kmh 29.61 in1002.7 mb 0.00 in0.0 mm 0.00 in0.0 mm 0.00 in0.0 mm
07:55 AM 45.7°F7.6°C 39.6°F4.2°C 79% 2.9 mph SW4.7 kmh SW 6.3 mph10.1 kmh 29.61 in1002.7 mb 0.00 in0.0 mm 0.00 in0.0 mm 0.00 in0.0 mm
08:00 AM 45.7°F7.6°C 39.6°F4.2°C 79% Calm Calm 4.3 mph6.9 kmh 29.62 in1003.0 mb 0.00 in0.0 mm 0.00 in0.0 mm 0.00 in0.0 mm
08:05 AM 45.7°F7.6°C 39.2°F4.0°C 78% 0.9 mph SW1.4 kmh SW 4.0 mph6.4 kmh 29.62 in1003.0 mb 0.00 in0.0 mm 0.00 in0.0 mm 0.00 in0.0 mm
08:10 AM 45.7°F7.6°C 39.6°F4.2°C 79% Calm Calm 2.5 mph4.0 kmh 29.62 in1003.0 mb 0.00 in0.0 mm 0.00 in0.0 mm 0.00 in0.0 mm
08:15 AM 45.7°F7.6°C 39.6°F4.2°C 79% 1.3 mph NE2.1 kmh NE 2.2 mph3.5 kmh 29.61 in1002.7 mb 0.00 in0.0 mm 0.00 in0.0 mm 0.00 in0.0 mm
08:20 AM 45.7°F7.6°C 39.6°F4.2°C 79% 1.6 mph NE2.6 kmh NE 1.8 mph2.9 kmh 29.61 in1002.7 mb 0.00 in0.0 mm 0.00 in0.0 mm 0.00 in0.0 mm
08:25 AM 45.5°F7.5°C 39.4°F4.1°C 79% Calm Calm 2.0 mph3.2 kmh 29.61 in1002.7 mb 0.00 in0.0 mm 0.00 in0.0 mm 0.00 in0.0 mm
08:30 AM 45.7°F7.6°C 39.6°F4.2°C 79% Calm Calm 2.0 mph3.2 kmh 29.61 in1002.7 mb 0.00 in0.0 mm 0.00 in0.0 mm 0.00 in0.0 mm
08:35 AM 45.7°F7.6°C 39.6°F4.2°C 79% Calm Calm 2.0 mph3.2 kmh 29.61 in1002.7 mb 0.00 in0.0 mm 0.00 in0.0 mm 0.00 in0.0 mm
08:40 AM 46.2°F7.9°C 40.5°F4.7°C 80% Calm Calm 1.3 mph2.1 kmh 29.61 in1002.7 mb 0.00 in0.0 mm 0.00 in0.0 mm 0.00 in0.0 mm
08:45 AM 46.2°F7.9°C 40.5°F4.7°C 80% Calm Calm -- 29.60 in1002.4 mb 0.00 in0.0 mm 0.00 in0.0 mm 0.00 in0.0 mm
08:50 AM 46.6°F8.1°C 40.8°F4.9°C 80% Calm Calm 1.1 mph1.8 kmh 29.61 in1002.7 mb 0.00 in0.0 mm 0.00 in0.0 mm 0.00 in0.0 mm
08:55 AM 46.9°F8.3°C 40.8°F4.9°C 79% Calm Calm 1.1 mph1.8 kmh 29.60 in1002.4 mb 0.00 in0.0 mm 0.00 in0.0 mm 0.00 in0.0 mm
09:00 AM 47.1°F8.4°C 40.9°F4.9°C 79% Calm Calm -- 29.61 in1002.7 mb 0.00 in0.0 mm 0.00 in0.0 mm 0.00 in0.0 mm
09:05 AM 47.3°F8.5°C 41.1°F5.1°C 79% Calm Calm -- 29.61 in1002.7 mb 0.00 in0.0 mm 0.00 in0.0 mm 0.00 in0.0 mm
09:10 AM 47.5°F8.6°C 41.3°F5.2°C 79% Calm Calm -- 29.61 in1002.7 mb 0.00 in0.0 mm 0.00 in0.0 mm 0.00 in0.0 mm
09:15 AM 47.5°F8.6°C 40.9°F4.9°C 78% Calm Calm 1.6 mph2.6 kmh 29.61 in1002.7 mb 0.00 in0.0 mm 0.00 in0.0 mm 0.00 in0.0 mm
09:20 AM 47.8°F8.8°C 41.3°F5.2°C 78% Calm Calm 1.6 mph2.6 kmh 29.60 in1002.4 mb 0.00 in0.0 mm 0.00 in0.0 mm 0.00 in0.0 mm
09:25 AM 48.0°F8.9°C 41.1°F5.1°C 77% 1.3 mph SW2.1 kmh SW 2.9 mph4.7 kmh 29.61 in1002.7 mb 0.00 in0.0 mm 0.00 in0.0 mm 0.00 in0.0 mm
09:30 AM 48.6°F9.2°C 41.6°F5.3°C 77% 0.9 mph SW1.4 kmh SW 2.9 mph4.7 kmh 29.61 in1002.7 mb 0.00 in0.0 mm 0.00 in0.0 mm 0.00 in0.0 mm
09:35 AM 48.9°F9.4°C 41.6°F5.3°C 76% Calm Calm 2.0 mph3.2 kmh 29.60 in1002.4 mb 0.00 in0.0 mm 0.00 in0.0 mm 0.00 in0.0 mm
09:40 AM 49.6°F9.8°C 42.3°F5.7°C 76% Calm Calm 1.1 mph1.8 kmh 29.60 in1002.4 mb 0.00 in0.0 mm 0.00 in0.0 mm 0.00 in0.0 mm
09:45 AM 49.8°F9.9°C 42.2°F5.7°C 75% Calm Calm 1.3 mph2.1 kmh 29.60 in1002.4 mb 0.00 in0.0 mm 0.00 in0.0 mm 0.00 in0.0 mm
09:50 AM 50.7°F10.4°C 43.1°F6.2°C 75% Calm Calm 1.3 mph2.1 kmh 29.60 in1002.4 mb 0.00 in0.0 mm 0.00 in0.0 mm 0.00 in0.0 mm
09:55 AM 51.6°F10.9°C 43.6°F6.4°C 74% Calm Calm -- 29.60 in1002.4 mb 0.00 in0.0 mm 0.00 in0.0 mm 0.00 in0.0 mm
10:00 AM 51.8°F11.0°C 42.4°F5.8°C 70% Calm Calm 4.0 mph6.4 kmh 29.60 in1002.4 mb 0.00 in0.0 mm 0.00 in0.0 mm 0.00 in0.0 mm
10:05 AM 51.8°F11.0°C 42.0°F5.6°C 69% 2.7 mph NNE4.3 kmh NNE 4.0 mph6.4 kmh 29.60 in1002.4 mb 0.00 in0.0 mm 0.00 in0.0 mm 0.00 in0.0 mm
10:10 AM 51.8°F11.0°C 42.0°F5.6°C 69% 2.2 mph NE3.5 kmh NE 3.6 mph5.8 kmh 29.60 in1002.4 mb 0.00 in0.0 mm 0.00 in0.0 mm 0.00 in0.0 mm
10:15 AM 51.6°F10.9°C 40.6°F4.8°C 66% Calm Calm 4.0 mph6.4 kmh 29.60 in1002.4 mb 0.00 in0.0 mm 0.00 in0.0 mm 0.00 in0.0 mm
10:20 AM 52.0°F11.1°C 40.9°F4.9°C 66% 3.8 mph NE6.1 kmh NE 5.1 mph8.2 kmh 29.60 in1002.4 mb 0.00 in0.0 mm 0.00 in0.0 mm 0.00 in0.0 mm
10:25 AM 51.6°F10.9°C 40.6°F4.8°C 66% Calm Calm 6.9 mph11.1 kmh 29.60 in1002.4 mb 0.00 in0.0 mm 0.00 in0.0 mm 0.00 in0.0 mm
10:30 AM 51.6°F10.9°C 40.6°F4.8°C 66% Calm Calm 6.9 mph11.1 kmh 29.60 in1002.4 mb 0.00 in0.0 mm 0.00 in0.0 mm 0.00 in0.0 mm
10:35 AM 51.6°F10.9°C 39.8°F4.3°C 64% 0.9 mph W1.4 kmh W 7.6 mph12.2 kmh 29.60 in1002.4 mb 0.00 in0.0 mm 0.00 in0.0 mm 0.00 in0.0 mm
10:40 AM 51.6°F10.9°C 40.2°F4.6°C 65% 1.3 mph WSW2.1 kmh WSW 7.6 mph12.2 kmh 29.60 in1002.4 mb 0.00 in0.0 mm 0.00 in0.0 mm 0.00 in0.0 mm
10:45 AM 51.6°F10.9°C 40.2°F4.6°C 65% Calm Calm 5.1 mph8.2 kmh 29.60 in1002.4 mb 0.00 in0.0 mm 0.00 in0.0 mm 0.00 in0.0 mm
10:50 AM 51.6°F10.9°C 40.2°F4.6°C 65% 2.0 mph WSW3.2 kmh WSW 3.6 mph5.8 kmh 29.59 in1002.0 mb 0.00 in0.0 mm 0.00 in0.0 mm 0.00 in0.0 mm
10:55 AM 51.6°F10.9°C 40.2°F4.6°C 65% 3.8 mph NW6.1 kmh NW 4.0 mph6.4 kmh 29.59 in1002.0 mb 0.00 in0.0 mm 0.00 in0.0 mm 0.00 in0.0 mm
11:00 AM 51.6°F10.9°C 40.6°F4.8°C 66% Calm Calm 4.0 mph6.4 kmh 29.59 in1002.0 mb 0.00 in0.0 mm 0.00 in0.0 mm 0.00 in0.0 mm
11:05 AM 51.4°F10.8°C 40.4°F4.7°C 66% Calm Calm 3.8 mph6.1 kmh 29.59 in1002.0 mb 0.00 in0.0 mm 0.00 in0.0 mm 0.00 in0.0 mm
11:10 AM 51.4°F10.8°C 40.4°F4.7°C 66% 1.3 mph WNW2.1 kmh WNW 2.9 mph4.7 kmh 29.59 in1002.0 mb 0.00 in0.0 mm 0.00 in0.0 mm 0.00 in0.0 mm
11:15 AM 51.4°F10.8°C 40.4°F4.7°C 66% 2.7 mph WSW4.3 kmh WSW 4.9 mph7.9 kmh 29.59 in1002.0 mb 0.00 in0.0 mm 0.00 in0.0 mm 0.00 in0.0 mm
11:20 AM 51.1°F10.6°C 40.1°F4.5°C 66% 1.6 mph WSW2.6 kmh WSW 4.9 mph7.9 kmh 29.58 in1001.7 mb 0.00 in0.0 mm 0.00 in0.0 mm 0.00 in0.0 mm
11:25 AM 51.3°F10.7°C 40.7°F4.8°C 67% Calm Calm 3.6 mph5.8 kmh 29.59 in1002.0 mb 0.00 in0.0 mm 0.00 in0.0 mm 0.00 in0.0 mm
11:30 AM 51.1°F10.6°C 41.3°F5.2°C 69% Calm Calm 3.1 mph5.0 kmh 29.58 in1001.7 mb 0.00 in0.0 mm 0.00 in0.0 mm 0.00 in0.0 mm
11:35 AM 51.3°F10.7°C 41.5°F5.3°C 69% Calm Calm 2.5 mph4.0 kmh 29.58 in1001.7 mb 0.00 in0.0 mm 0.00 in0.0 mm 0.00 in0.0 mm
11:40 AM 51.1°F10.6°C 41.7°F5.4°C 70% 1.1 mph SW1.8 kmh SW 2.0 mph3.2 kmh 29.57 in1001.4 mb 0.00 in0.0 mm 0.00 in0.0 mm 0.00 in0.0 mm
11:45 AM 51.1°F10.6°C 42.1°F5.6°C 71% 0.9 mph SW1.4 kmh SW 2.5 mph4.0 kmh 29.57 in1001.4 mb 0.00 in0.0 mm 0.00 in0.0 mm 0.00 in0.0 mm
11:50 AM 51.3°F10.7°C 42.6°F5.9°C 72% Calm Calm 2.5 mph4.0 kmh 29.57 in1001.4 mb 0.00 in0.0 mm 0.00 in0.0 mm 0.00 in0.0 mm
11:55 AM 51.1°F10.6°C 42.7°F5.9°C 73% Calm Calm 1.6 mph2.6 kmh 29.57 in1001.4 mb 0.00 in0.0 mm 0.00 in0.0 mm 0.00 in0.0 mm
12:00 PM 51.1°F10.6°C 43.4°F6.3°C 75% Calm Calm 2.7 mph4.3 kmh 29.57 in1001.4 mb 0.00 in0.0 mm 0.00 in0.0 mm 0.00 in0.0 mm
12:05 PM 51.1°F10.6°C 43.4°F6.3°C 75% Calm Calm 2.7 mph4.3 kmh 29.56 in1001.0 mb 0.00 in0.0 mm 0.00 in0.0 mm 0.00 in0.0 mm
12:10 PM 50.9°F10.5°C 43.3°F6.3°C 75% Calm Calm 1.1 mph1.8 kmh 29.56 in1001.0 mb 0.00 in0.0 mm 0.00 in0.0 mm 0.00 in0.0 mm
12:15 PM 50.7°F10.4°C 43.1°F6.2°C 75% Calm Calm 0.9 mph1.4 kmh 29.56 in1001.0 mb 0.00 in0.0 mm 0.00 in0.0 mm 0.00 in0.0 mm
12:20 PM 50.7°F10.4°C 43.4°F6.3°C 76% Calm Calm 1.6 mph2.6 kmh 29.55 in1000.7 mb 0.00 in0.0 mm 0.00 in0.0 mm 0.00 in0.0 mm
12:25 PM 50.5°F10.3°C 43.2°F6.2°C 76% Calm Calm 1.6 mph2.6 kmh 29.55 in1000.7 mb 0.00 in0.0 mm 0.00 in0.0 mm 0.00 in0.0 mm
12:30 PM 50.4°F10.2°C 43.1°F6.2°C 76% Calm Calm 1.3 mph2.1 kmh 29.55 in1000.7 mb 0.00 in0.0 mm 0.00 in0.0 mm 0.00 in0.0 mm
12:35 PM 50.5°F10.3°C 43.6°F6.4°C 77% Calm Calm 1.3 mph2.1 kmh 29.55 in1000.7 mb 0.00 in0.0 mm 0.00 in0.0 mm 0.00 in0.0 mm
12:40 PM 50.5°F10.3°C 43.6°F6.4°C 77% 1.3 mph NE2.1 kmh NE 1.6 mph2.6 kmh 29.55 in1000.7 mb 0.02 in0.5 mm 0.24 in6.1 mm 0.02 in0.5 mm
12:45 PM 50.4°F10.2°C 43.4°F6.3°C 77% Calm Calm 1.6 mph2.6 kmh 29.55 in1000.7 mb 0.02 in0.5 mm 0.00 in0.0 mm 0.02 in0.5 mm
12:50 PM 50.2°F10.1°C 43.2°F6.2°C 77% 2.5 mph E4.0 kmh E 3.8 mph6.1 kmh 29.54 in1000.3 mb 0.02 in0.5 mm 0.00 in0.0 mm 0.02 in0.5 mm
12:55 PM 49.8°F9.9°C 42.9°F6.1°C 77% Calm Calm 3.8 mph6.1 kmh 29.54 in1000.3 mb 0.02 in0.5 mm 0.00 in0.0 mm 0.02 in0.5 mm
01:00 PM 49.8°F9.9°C 43.2°F6.2°C 78% Calm Calm 2.5 mph4.0 kmh 29.54 in1000.3 mb 0.04 in1.0 mm 0.02 in0.5 mm 0.04 in1.0 mm
01:05 PM 49.8°F9.9°C 43.5°F6.4°C 79% 1.1 mph ENE1.8 kmh ENE 1.1 mph1.8 kmh 29.54 in1000.3 mb 0.04 in1.0 mm 0.00 in0.0 mm 0.04 in1.0 mm
01:10 PM 49.6°F9.8°C 43.7°F6.5°C 80% 1.1 mph NNE1.8 kmh NNE 4.7 mph7.6 kmh 29.54 in1000.3 mb 0.04 in1.0 mm 0.00 in0.0 mm 0.04 in1.0 mm
01:15 PM 49.3°F9.6°C 43.6°F6.4°C 81% 4.0 mph NNE6.4 kmh NNE 5.8 mph9.3 kmh 29.53 in1000.0 mb 0.06 in1.5 mm 0.24 in6.1 mm 0.06 in1.5 mm
01:20 PM 48.9°F9.4°C 43.6°F6.4°C 82% 2.5 mph NE4.0 kmh NE 5.8 mph9.3 kmh 29.53 in1000.0 mb 0.06 in1.5 mm 0.00 in0.0 mm 0.06 in1.5 mm
01:25 PM 48.7°F9.3°C 43.8°F6.6°C 83% 3.6 mph NNE5.8 kmh NNE 5.1 mph8.2 kmh 29.53 in1000.0 mb 0.06 in1.5 mm 0.00 in0.0 mm 0.06 in1.5 mm
01:30 PM 48.6°F9.2°C 43.9°F6.6°C 84% 4.7 mph NNE7.6 kmh NNE 8.3 mph13.4 kmh 29.53 in1000.0 mb 0.06 in1.5 mm 0.00 in0.0 mm 0.06 in1.5 mm
01:35 PM 48.4°F9.1°C 43.7°F6.5°C 84% 4.9 mph NNE7.9 kmh NNE 8.3 mph13.4 kmh 29.53 in1000.0 mb 0.08 in2.0 mm 0.24 in6.1 mm 0.08 in2.0 mm
01:40 PM 48.6°F9.2°C 44.2°F6.8°C 85% 3.6 mph NNE5.8 kmh NNE 6.5 mph10.5 kmh 29.52 in999.7 mb 0.06 in1.5 mm 0.00 in0.0 mm 0.08 in2.0 mm
01:45 PM 48.4°F9.1°C 44.4°F6.9°C 86% Calm Calm 7.4 mph11.9 kmh 29.52 in999.7 mb 0.06 in1.5 mm 0.00 in0.0 mm 0.08 in2.0 mm
01:50 PM 48.6°F9.2°C 44.5°F6.9°C 86% 4.3 mph NNE6.9 kmh NNE 7.4 mph11.9 kmh 29.52 in999.7 mb 0.06 in1.5 mm 0.00 in0.0 mm 0.08 in2.0 mm
01:55 PM 48.6°F9.2°C 44.9°F7.2°C 87% 2.9 mph NNE4.7 kmh NNE 8.9 mph14.3 kmh 29.52 in999.7 mb 0.06 in1.5 mm 0.00 in0.0 mm 0.08 in2.0 mm
02:00 PM 48.6°F9.2°C 45.2°F7.3°C 88% Calm Calm 8.9 mph14.3 kmh 29.52 in999.7 mb 0.06 in1.5 mm 0.00 in0.0 mm 0.10 in2.5 mm
02:05 PM 48.7°F9.3°C 45.3°F7.4°C 88% 1.6 mph NNE2.6 kmh NNE 8.9 mph14.3 kmh 29.52 in999.7 mb 0.06 in1.5 mm 0.00 in0.0 mm 0.10 in2.5 mm
02:10 PM 48.7°F9.3°C 45.3°F7.4°C 88% 5.8 mph NNE9.3 kmh NNE 11.4 mph18.3 kmh 29.51 in999.3 mb 0.06 in1.5 mm 0.00 in0.0 mm 0.10 in2.5 mm
02:15 PM 48.7°F9.3°C 45.3°F7.4°C 88% 4.9 mph NE7.9 kmh NE 11.4 mph18.3 kmh 29.52 in999.7 mb 0.04 in1.0 mm 0.00 in0.0 mm 0.10 in2.5 mm
02:20 PM 48.7°F9.3°C 45.3°F7.4°C 88% 1.6 mph NE2.6 kmh NE 6.7 mph10.8 kmh 29.51 in999.3 mb 0.04 in1.0 mm 0.00 in0.0 mm 0.10 in2.5 mm
02:25 PM 48.7°F9.3°C 45.7°F7.6°C 89% 1.8 mph NNE2.9 kmh NNE 6.7 mph10.8 kmh 29.51 in999.3 mb 0.04 in1.0 mm 0.00 in0.0 mm 0.10 in2.5 mm
02:30 PM 48.9°F9.4°C 45.8°F7.7°C 89% Calm Calm 6.7 mph10.8 kmh 29.51 in999.3 mb 0.04 in1.0 mm 0.00 in0.0 mm 0.10 in2.5 mm
02:35 PM 48.9°F9.4°C 45.8°F7.7°C 89% 3.1 mph NE5.0 kmh NE 6.7 mph10.8 kmh 29.51 in999.3 mb 0.02 in0.5 mm 0.00 in0.0 mm 0.10 in2.5 mm
02:40 PM 48.9°F9.4°C 46.1°F7.8°C 90% 2.7 mph NNE4.3 kmh NNE 6.0 mph9.7 kmh 29.50 in999.0 mb 0.02 in0.5 mm 0.00 in0.0 mm 0.10 in2.5 mm
02:45 PM 48.9°F9.4°C 46.1°F7.8°C 90% 4.5 mph N7.2 kmh N 6.3 mph10.1 kmh 29.50 in999.0 mb 0.02 in0.5 mm 0.00 in0.0 mm 0.10 in2.5 mm
02:50 PM 48.7°F9.3°C 46.0°F7.8°C 90% Calm Calm 6.3 mph10.1 kmh 29.50 in999.0 mb 0.02 in0.5 mm 0.00 in0.0 mm 0.10 in2.5 mm
02:55 PM 48.7°F9.3°C 46.0°F7.8°C 90% 3.6 mph NE5.8 kmh NE 7.4 mph11.9 kmh 29.50 in999.0 mb 0.02 in0.5 mm 0.00 in0.0 mm 0.10 in2.5 mm
03:00 PM 48.9°F9.4°C 46.1°F7.8°C 90% 2.2 mph NE3.5 kmh NE 7.4 mph11.9 kmh 29.50 in999.0 mb 0.00 in0.0 mm 0.00 in0.0 mm 0.10 in2.5 mm
03:05 PM 48.9°F9.4°C 46.1°F7.8°C 90% Calm Calm 6.0 mph9.7 kmh 29.49 in998.6 mb 0.00 in0.0 mm 0.00 in0.0 mm 0.10 in2.5 mm
03:10 PM 48.9°F9.4°C 46.1°F7.8°C 90% 4.9 mph NE7.9 kmh NE 5.1 mph8.2 kmh 29.49 in998.6 mb 0.00 in0.0 mm 0.00 in0.0 mm 0.10 in2.5 mm
03:15 PM 48.9°F9.4°C 46.1°F7.8°C 90% 4.0 mph NE6.4 kmh NE 7.8 mph12.6 kmh 29.49 in998.6 mb 0.00 in0.0 mm 0.00 in0.0 mm 0.10 in2.5 mm
03:20 PM 48.9°F9.4°C 46.1°F7.8°C 90% 1.8 mph NE2.9 kmh NE 7.8 mph12.6 kmh 29.49 in998.6 mb 0.00 in0.0 mm 0.00 in0.0 mm 0.10 in2.5 mm
03:25 PM 49.1°F9.5°C 46.3°F7.9°C 90% Calm Calm 5.8 mph9.3 kmh 29.49 in998.6 mb 0.00 in0.0 mm 0.00 in0.0 mm 0.10 in2.5 mm
03:30 PM 49.1°F9.5°C 46.3°F7.9°C 90% 1.3 mph NNE2.1 kmh NNE 4.5 mph7.2 kmh 29.49 in998.6 mb 0.00 in0.0 mm 0.00 in0.0 mm 0.10 in2.5 mm
03:35 PM 49.1°F9.5°C 46.3°F7.9°C 90% 1.8 mph NE2.9 kmh NE 4.5 mph7.2 kmh 29.49 in998.6 mb 0.00 in0.0 mm 0.00 in0.0 mm 0.10 in2.5 mm
03:40 PM 49.3°F9.6°C 46.5°F8.1°C 90% 0.9 mph NE1.4 kmh NE 5.4 mph8.7 kmh 29.49 in998.6 mb 0.00 in0.0 mm 0.00 in0.0 mm 0.10 in2.5 mm
03:45 PM 49.3°F9.6°C 46.1°F7.8°C 89% 2.0 mph NE3.2 kmh NE 5.4 mph8.7 kmh 29.49 in998.6 mb 0.00 in0.0 mm 0.00 in0.0 mm 0.10 in2.5 mm
03:50 PM 49.3°F9.6°C 46.1°F7.8°C 89% 4.0 mph NNE6.4 kmh NNE 6.9 mph11.1 kmh 29.49 in998.6 mb 0.00 in0.0 mm 0.00 in0.0 mm 0.10 in2.5 mm
03:55 PM 49.3°F9.6°C 46.1°F7.8°C 89% 6.3 mph NE10.1 kmh NE 6.9 mph11.1 kmh 29.49 in998.6 mb 0.00 in0.0 mm 0.00 in0.0 mm 0.10 in2.5 mm
04:00 PM 49.3°F9.6°C 46.1°F7.8°C 89% Calm Calm 6.3 mph10.1 kmh 29.48 in998.3 mb 0.00 in0.0 mm 0.00 in0.0 mm 0.10 in2.5 mm
04:05 PM 49.3°F9.6°C 46.1°F7.8°C 89% 2.7 mph NNW4.3 kmh NNW 5.8 mph9.3 kmh 29.49 in998.6 mb 0.00 in0.0 mm 0.00 in0.0 mm 0.10 in2.5 mm
04:10 PM 49.6°F9.8°C 46.5°F8.1°C 89% Calm Calm 9.8 mph15.8 kmh 29.49 in998.6 mb 0.00 in0.0 mm 0.00 in0.0 mm 0.10 in2.5 mm
04:15 PM 49.6°F9.8°C 46.5°F8.1°C 89% Calm Calm 9.8 mph15.8 kmh 29.49 in998.6 mb 0.00 in0.0 mm 0.00 in0.0 mm 0.10 in2.5 mm
04:20 PM 49.6°F9.8°C 46.5°F8.1°C 89% Calm Calm 5.8 mph9.3 kmh 29.49 in998.6 mb 0.00 in0.0 mm 0.00 in0.0 mm 0.10 in2.5 mm
04:25 PM 49.6°F9.8°C 46.5°F8.1°C 89% 5.8 mph NE9.3 kmh NE 5.8 mph9.3 kmh 29.49 in998.6 mb 0.00 in0.0 mm 0.00 in0.0 mm 0.10 in2.5 mm
04:30 PM 49.6°F9.8°C 46.5°F8.1°C 89% 6.0 mph NNE9.7 kmh NNE 6.3 mph10.1 kmh 29.49 in998.6 mb 0.00 in0.0 mm 0.00 in0.0 mm 0.10 in2.5 mm
04:35 PM 49.6°F9.8°C 46.5°F8.1°C 89% 4.0 mph NNE6.4 kmh NNE 7.4 mph11.9 kmh 29.49 in998.6 mb 0.00 in0.0 mm 0.00 in0.0 mm 0.10 in2.5 mm
04:40 PM 49.8°F9.9°C 46.6°F8.1°C 89% 6.5 mph NNE10.5 kmh NNE 9.2 mph14.8 kmh 29.48 in998.3 mb 0.00 in0.0 mm 0.00 in0.0 mm 0.10 in2.5 mm
04:45 PM 49.8°F9.9°C 46.6°F8.1°C 89% Calm Calm 9.2 mph14.8 kmh 29.48 in998.3 mb 0.00 in0.0 mm 0.00 in0.0 mm 0.10 in2.5 mm
04:50 PM 49.8°F9.9°C 46.6°F8.1°C 89% 2.7 mph N4.3 kmh N 8.1 mph13.0 kmh 29.48 in998.3 mb 0.00 in0.0 mm 0.00 in0.0 mm 0.10 in2.5 mm
04:55 PM 49.8°F9.9°C 46.6°F8.1°C 89% Calm Calm 3.1 mph5.0 kmh 29.48 in998.3 mb 0.00 in0.0 mm 0.00 in0.0 mm 0.10 in2.5 mm
05:00 PM 49.8°F9.9°C 46.6°F8.1°C 89% Calm Calm 3.1 mph5.0 kmh 29.48 in998.3 mb 0.00 in0.0 mm 0.00 in0.0 mm 0.10 in2.5 mm
05:05 PM 49.8°F9.9°C 46.6°F8.1°C 89% 1.6 mph NW2.6 kmh NW 3.1 mph5.0 kmh 29.48 in998.3 mb 0.00 in0.0 mm 0.00 in0.0 mm 0.10 in2.5 mm
05:10 PM 49.8°F9.9°C 46.6°F8.1°C 89% Calm Calm 2.9 mph4.7 kmh 29.48 in998.3 mb 0.00 in0.0 mm 0.00 in0.0 mm 0.10 in2.5 mm
05:15 PM 49.8°F9.9°C 46.6°F8.1°C 89% 1.3 mph N2.1 kmh N 4.5 mph7.2 kmh 29.48 in998.3 mb 0.00 in0.0 mm 0.00 in0.0 mm 0.10 in2.5 mm
05:20 PM 49.6°F9.8°C 46.5°F8.1°C 89% Calm Calm 4.5 mph7.2 kmh 29.48 in998.3 mb 0.00 in0.0 mm 0.00 in0.0 mm 0.10 in2.5 mm
05:25 PM 49.6°F9.8°C 46.5°F8.1°C 89% 1.3 mph NE2.1 kmh NE 4.5 mph7.2 kmh 29.48 in998.3 mb 0.00 in0.0 mm 0.00 in0.0 mm 0.10 in2.5 mm
05:30 PM 49.6°F9.8°C 46.5°F8.1°C 89% Calm Calm 4.5 mph7.2 kmh 29.48 in998.3 mb 0.00 in0.0 mm 0.00 in0.0 mm 0.10 in2.5 mm
05:35 PM 49.6°F9.8°C 46.2°F7.9°C 88% Calm Calm 2.5 mph4.0 kmh 29.48 in998.3 mb 0.00 in0.0 mm 0.00 in0.0 mm 0.10 in2.5 mm
05:40 PM 49.6°F9.8°C 46.2°F7.9°C 88% Calm Calm 1.1 mph1.8 kmh 29.48 in998.3 mb 0.00 in0.0 mm 0.00 in0.0 mm 0.10 in2.5 mm
05:45 PM 49.6°F9.8°C 46.2°F7.9°C 88% 0.9 mph N1.4 kmh N 2.5 mph4.0 kmh 29.48 in998.3 mb 0.00 in0.0 mm 0.00 in0.0 mm 0.10 in2.5 mm
05:50 PM 49.6°F9.8°C 46.2°F7.9°C 88% 1.8 mph NNE2.9 kmh NNE 3.8 mph6.1 kmh 29.49 in998.6 mb 0.00 in0.0 mm 0.00 in0.0 mm 0.10 in2.5 mm
05:55 PM 49.6°F9.8°C 46.2°F7.9°C 88% Calm Calm 3.8 mph6.1 kmh 29.49 in998.6 mb 0.00 in0.0 mm 0.00 in0.0 mm 0.10 in2.5 mm
06:00 PM 49.8°F9.9°C 46.3°F7.9°C 88% 2.7 mph NE4.3 kmh NE 5.1 mph8.2 kmh 29.49 in998.6 mb 0.00 in0.0 mm 0.00 in0.0 mm 0.10 in2.5 mm
06:05 PM 49.8°F9.9°C 46.6°F8.1°C 89% 3.4 mph NNE5.5 kmh NNE 5.1 mph8.2 kmh 29.49 in998.6 mb 0.00 in0.0 mm 0.00 in0.0 mm 0.10 in2.5 mm
06:10 PM 49.8°F9.9°C 46.6°F8.1°C 89% 2.7 mph NE4.3 kmh NE 7.4 mph11.9 kmh 29.49 in998.6 mb 0.00 in0.0 mm 0.00 in0.0 mm 0.10 in2.5 mm
06:15 PM 49.8°F9.9°C 46.6°F8.1°C 89% 2.0 mph NE3.2 kmh NE 7.4 mph11.9 kmh 29.49 in998.6 mb 0.00 in0.0 mm 0.00 in0.0 mm 0.10 in2.5 mm
06:20 PM 49.8°F9.9°C 46.6°F8.1°C 89% Calm Calm 5.4 mph8.7 kmh 29.49 in998.6 mb 0.00 in0.0 mm 0.00 in0.0 mm 0.10 in2.5 mm
06:25 PM 49.8°F9.9°C 46.6°F8.1°C 89% 2.9 mph NE4.7 kmh NE 11.0 mph17.7 kmh 29.49 in998.6 mb 0.00 in0.0 mm 0.00 in0.0 mm 0.10 in2.5 mm
06:30 PM 49.8°F9.9°C 46.6°F8.1°C 89% 0.9 mph NE1.4 kmh NE 11.0 mph17.7 kmh 29.48 in998.3 mb 0.00 in0.0 mm 0.00 in0.0 mm 0.10 in2.5 mm
06:35 PM 49.8°F9.9°C 46.6°F8.1°C 89% 3.6 mph NE5.8 kmh NE 7.4 mph11.9 kmh 29.49 in998.6 mb 0.00 in0.0 mm 0.00 in0.0 mm 0.10 in2.5 mm
06:40 PM 49.8°F9.9°C 46.6°F8.1°C 89% 2.5 mph NE4.0 kmh NE 7.4 mph11.9 kmh 29.49 in998.6 mb 0.00 in0.0 mm 0.00 in0.0 mm 0.10 in2.5 mm
06:45 PM 49.8°F9.9°C 46.6°F8.1°C 89% 1.6 mph NNE2.6 kmh NNE 7.2 mph11.6 kmh 29.49 in998.6 mb 0.00 in0.0 mm 0.00 in0.0 mm 0.10 in2.5 mm
06:50 PM 49.8°F9.9°C 46.6°F8.1°C 89% 6.7 mph NNE10.8 kmh NNE 10.3 mph16.6 kmh 29.49 in998.6 mb 0.00 in0.0 mm 0.00 in0.0 mm 0.10 in2.5 mm
06:55 PM 49.8°F9.9°C 47.0°F8.3°C 90% 4.5 mph NNE7.2 kmh NNE 10.3 mph16.6 kmh 29.49 in998.6 mb 0.00 in0.0 mm 0.00 in0.0 mm 0.10 in2.5 mm
07:00 PM 49.8°F9.9°C 47.0°F8.3°C 90% 2.5 mph N4.0 kmh N 8.1 mph13.0 kmh 29.49 in998.6 mb 0.00 in0.0 mm 0.00 in0.0 mm 0.10 in2.5 mm
07:05 PM 49.8°F9.9°C 47.0°F8.3°C 90% Calm Calm 6.9 mph11.1 kmh 29.49 in998.6 mb 0.00 in0.0 mm 0.00 in0.0 mm 0.10 in2.5 mm
07:10 PM 50.2°F10.1°C 47.3°F8.5°C 90% Calm Calm 5.8 mph9.3 kmh 29.49 in998.6 mb 0.00 in0.0 mm 0.00 in0.0 mm 0.10 in2.5 mm
07:15 PM 50.2°F10.1°C 47.3°F8.5°C 90% 2.2 mph NNE3.5 kmh NNE 5.6 mph9.0 kmh 29.50 in999.0 mb 0.00 in0.0 mm 0.00 in0.0 mm 0.10 in2.5 mm
07:20 PM 50.2°F10.1°C 47.3°F8.5°C 90% Calm Calm 2.9 mph4.7 kmh 29.50 in999.0 mb 0.00 in0.0 mm 0.00 in0.0 mm 0.10 in2.5 mm
07:25 PM 50.2°F10.1°C 47.3°F8.5°C 90% Calm Calm 4.5 mph7.2 kmh 29.50 in999.0 mb 0.00 in0.0 mm 0.00 in0.0 mm 0.10 in2.5 mm
07:30 PM 50.2°F10.1°C 47.3°F8.5°C 90% 0.7 mph NE1.1 kmh NE 4.5 mph7.2 kmh 29.50 in999.0 mb 0.00 in0.0 mm 0.00 in0.0 mm 0.10 in2.5 mm
07:35 PM 50.2°F10.1°C 47.3°F8.5°C 90% Calm Calm 4.3 mph6.9 kmh 29.50 in999.0 mb 0.00 in0.0 mm 0.00 in0.0 mm 0.10 in2.5 mm
07:40 PM 50.2°F10.1°C 47.0°F8.3°C 89% Calm Calm 4.3 mph6.9 kmh 29.50 in999.0 mb 0.00 in0.0 mm 0.00 in0.0 mm 0.10 in2.5 mm
07:45 PM 50.4°F10.2°C 47.5°F8.6°C 90% 4.3 mph NNE6.9 kmh NNE 4.5 mph7.2 kmh 29.50 in999.0 mb 0.00 in0.0 mm 0.00 in0.0 mm 0.10 in2.5 mm
07:50 PM 50.4°F10.2°C 47.5°F8.6°C 90% 3.8 mph NNE6.1 kmh NNE 7.4 mph11.9 kmh 29.50 in999.0 mb 0.00 in0.0 mm 0.00 in0.0 mm 0.10 in2.5 mm
07:55 PM 50.4°F10.2°C 47.5°F8.6°C 90% 3.6 mph NNE5.8 kmh NNE 7.4 mph11.9 kmh 29.50 in999.0 mb 0.00 in0.0 mm 0.00 in0.0 mm 0.10 in2.5 mm
08:00 PM 50.4°F10.2°C 47.5°F8.6°C 90% 2.9 mph NNE4.7 kmh NNE 7.4 mph11.9 kmh 29.50 in999.0 mb 0.00 in0.0 mm 0.00 in0.0 mm 0.10 in2.5 mm
08:05 PM 50.2°F10.1°C 47.3°F8.5°C 90% Calm Calm 6.9 mph11.1 kmh 29.50 in999.0 mb 0.00 in0.0 mm 0.00 in0.0 mm 0.10 in2.5 mm
08:10 PM 50.2°F10.1°C 47.3°F8.5°C 90% 1.8 mph NNE2.9 kmh NNE 5.4 mph8.7 kmh 29.50 in999.0 mb 0.00 in0.0 mm 0.00 in0.0 mm 0.10 in2.5 mm
08:15 PM 50.2°F10.1°C 47.3°F8.5°C 90% 1.6 mph NE2.6 kmh NE 4.7 mph7.6 kmh 29.50 in999.0 mb 0.00 in0.0 mm 0.00 in0.0 mm 0.10 in2.5 mm
08:20 PM 50.2°F10.1°C 47.3°F8.5°C 90% Calm Calm 3.8 mph6.1 kmh 29.50 in999.0 mb 0.00 in0.0 mm 0.00 in0.0 mm 0.10 in2.5 mm
08:25 PM 50.2°F10.1°C 47.3°F8.5°C 90% Calm Calm 2.9 mph4.7 kmh 29.51 in999.3 mb 0.00 in0.0 mm 0.00 in0.0 mm 0.10 in2.5 mm
08:30 PM 50.2°F10.1°C 47.3°F8.5°C 90% Calm Calm 2.9 mph4.7 kmh 29.50 in999.0 mb 0.00 in0.0 mm 0.00 in0.0 mm 0.10 in2.5 mm
08:35 PM 50.2°F10.1°C 47.3°F8.5°C 90% 3.6 mph ENE5.8 kmh ENE 3.6 mph5.8 kmh 29.50 in999.0 mb 0.00 in0.0 mm 0.00 in0.0 mm 0.10 in2.5 mm
08:40 PM 50.2°F10.1°C 47.3°F8.5°C 90% Calm Calm 6.9 mph11.1 kmh 29.50 in999.0 mb 0.00 in0.0 mm 0.00 in0.0 mm 0.10 in2.5 mm
08:45 PM 50.2°F10.1°C 47.3°F8.5°C 90% 1.6 mph NE2.6 kmh NE 6.9 mph11.1 kmh 29.51 in999.3 mb 0.00 in0.0 mm 0.00 in0.0 mm 0.10 in2.5 mm
08:50 PM 50.4°F10.2°C 47.2°F8.4°C 89% Calm Calm 2.2 mph3.5 kmh 29.51 in999.3 mb 0.00 in0.0 mm 0.00 in0.0 mm 0.10 in2.5 mm
08:55 PM 50.2°F10.1°C 47.0°F8.3°C 89% Calm Calm 2.2 mph3.5 kmh 29.51 in999.3 mb 0.00 in0.0 mm 0.00 in0.0 mm 0.10 in2.5 mm
09:00 PM 50.2°F10.1°C 47.0°F8.3°C 89% 0.9 mph WNW1.4 kmh WNW 2.0 mph3.2 kmh 29.51 in999.3 mb 0.00 in0.0 mm 0.00 in0.0 mm 0.10 in2.5 mm
09:05 PM 50.2°F10.1°C 47.0°F8.3°C 89% 0.9 mph W1.4 kmh W 2.0 mph3.2 kmh 29.51 in999.3 mb 0.00 in0.0 mm 0.00 in0.0 mm 0.10 in2.5 mm
09:10 PM 50.2°F10.1°C 47.0°F8.3°C 89% Calm Calm 1.1 mph1.8 kmh 29.51 in999.3 mb 0.00 in0.0 mm 0.00 in0.0 mm 0.10 in2.5 mm
09:15 PM 50.2°F10.1°C 47.0°F8.3°C 89% Calm Calm 1.3 mph2.1 kmh 29.51 in999.3 mb 0.00 in0.0 mm 0.00 in0.0 mm 0.10 in2.5 mm
09:20 PM 50.2°F10.1°C 47.0°F8.3°C 89% 1.3 mph SSE2.1 kmh SSE 1.3 mph2.1 kmh 29.51 in999.3 mb 0.00 in0.0 mm 0.00 in0.0 mm 0.10 in2.5 mm
09:25 PM 50.2°F10.1°C 47.0°F8.3°C 89% 0.7 mph SE1.1 kmh SE 1.6 mph2.6 kmh 29.51 in999.3 mb 0.00 in0.0 mm 0.00 in0.0 mm 0.10 in2.5 mm
09:30 PM 49.8°F9.9°C 46.6°F8.1°C 89% Calm Calm 1.6 mph2.6 kmh 29.51 in999.3 mb 0.00 in0.0 mm 0.00 in0.0 mm 0.10 in2.5 mm
09:35 PM 49.8°F9.9°C 46.6°F8.1°C 89% 1.1 mph S1.8 kmh S 2.7 mph4.3 kmh 29.51 in999.3 mb 0.00 in0.0 mm 0.00 in0.0 mm 0.10 in2.5 mm
09:40 PM 49.8°F9.9°C 46.6°F8.1°C 89% Calm Calm 3.8 mph6.1 kmh 29.52 in999.7 mb 0.00 in0.0 mm 0.00 in0.0 mm 0.10 in2.5 mm
09:45 PM 49.6°F9.8°C 46.5°F8.1°C 89% 1.3 mph SSW2.1 kmh SSW 3.8 mph6.1 kmh 29.52 in999.7 mb 0.00 in0.0 mm 0.00 in0.0 mm 0.10 in2.5 mm
09:50 PM 49.6°F9.8°C 46.5°F8.1°C 89% 2.0 mph SSW3.2 kmh SSW 2.9 mph4.7 kmh 29.51 in999.3 mb 0.00 in0.0 mm 0.00 in0.0 mm 0.10 in2.5 mm
09:55 PM 49.3°F9.6°C 46.1°F7.8°C 90% Calm Calm 2.5 mph4.0 kmh 29.51 in999.3 mb 0.00 in0.0 mm 0.00 in0.0 mm 0.10 in2.5 mm
10:00 PM 49.3°F9.6°C 46.5°F8.1°C 90% 0.9 mph S1.4 kmh S 2.5 mph4.0 kmh 29.51 in999.3 mb 0.00 in0.0 mm 0.00 in0.0 mm 0.10 in2.5 mm
10:05 PM 49.1°F9.5°C 46.0°F7.8°C 89% Calm Calm 1.6 mph2.6 kmh 29.51 in999.3 mb 0.00 in0.0 mm 0.00 in0.0 mm 0.10 in2.5 mm
10:10 PM 49.1°F9.5°C 46.0°F7.8°C 89% 1.6 mph S2.6 kmh S 2.5 mph4.0 kmh 29.51 in999.3 mb 0.00 in0.0 mm 0.00 in0.0 mm 0.10 in2.5 mm
10:15 PM 48.9°F9.4°C 46.1°F7.8°C 90% 2.0 mph SW3.2 kmh SW 2.7 mph4.3 kmh 29.52 in999.7 mb 0.00 in0.0 mm 0.00 in0.0 mm 0.10 in2.5 mm
10:20 PM 48.7°F9.3°C 46.0°F7.8°C 90% Calm Calm 2.7 mph4.3 kmh 29.52 in999.7 mb 0.00 in0.0 mm 0.00 in0.0 mm 0.10 in2.5 mm
10:25 PM 48.7°F9.3°C 46.0°F7.8°C 90% 1.3 mph S2.1 kmh S 1.6 mph2.6 kmh 29.52 in999.7 mb 0.00 in0.0 mm 0.00 in0.0 mm 0.10 in2.5 mm
10:30 PM 48.7°F9.3°C 46.0°F7.8°C 90% Calm Calm 1.8 mph2.9 kmh 29.52 in999.7 mb 0.00 in0.0 mm 0.00 in0.0 mm 0.10 in2.5 mm
10:35 PM 48.7°F9.3°C 46.0°F7.8°C 90% Calm Calm 2.0 mph3.2 kmh 29.52 in999.7 mb 0.00 in0.0 mm 0.00 in0.0 mm 0.10 in2.5 mm
10:40 PM 48.7°F9.3°C 46.0°F7.8°C 90% Calm Calm 2.0 mph3.2 kmh 29.52 in999.7 mb 0.00 in0.0 mm 0.00 in0.0 mm 0.10 in2.5 mm
10:45 PM 48.7°F9.3°C 46.0°F7.8°C 90% Calm Calm 1.8 mph2.9 kmh 29.52 in999.7 mb 0.00 in0.0 mm 0.00 in0.0 mm 0.10 in2.5 mm
10:50 PM 48.7°F9.3°C 46.0°F7.8°C 90% Calm Calm 2.0 mph3.2 kmh 29.52 in999.7 mb 0.00 in0.0 mm 0.00 in0.0 mm 0.10 in2.5 mm
10:55 PM 48.7°F9.3°C 46.0°F7.8°C 90% Calm Calm 2.0 mph3.2 kmh 29.52 in999.7 mb 0.00 in0.0 mm 0.00 in0.0 mm 0.10 in2.5 mm
11:00 PM 48.7°F9.3°C 46.0°F7.8°C 90% 1.3 mph SW2.1 kmh SW 1.3 mph2.1 kmh 29.52 in999.7 mb 0.00 in0.0 mm 0.00 in0.0 mm 0.10 in2.5 mm
11:05 PM 48.7°F9.3°C 46.0°F7.8°C 90% Calm Calm 1.3 mph2.1 kmh 29.51 in999.3 mb 0.00 in0.0 mm 0.00 in0.0 mm 0.10 in2.5 mm
11:10 PM 48.7°F9.3°C 46.0°F7.8°C 90% Calm Calm 0.9 mph1.4 kmh 29.51 in999.3 mb 0.00 in0.0 mm 0.00 in0.0 mm 0.10 in2.5 mm
11:15 PM 48.9°F9.4°C 46.1°F7.8°C 90% Calm Calm 1.3 mph2.1 kmh 29.51 in999.3 mb 0.00 in0.0 mm 0.00 in0.0 mm 0.10 in2.5 mm
11:20 PM 48.9°F9.4°C 46.1°F7.8°C 90% Calm Calm 1.3 mph2.1 kmh 29.51 in999.3 mb 0.00 in0.0 mm 0.00 in0.0 mm 0.10 in2.5 mm
11:25 PM 48.9°F9.4°C 46.1°F7.8°C 90% Calm Calm 1.1 mph1.8 kmh 29.51 in999.3 mb 0.00 in0.0 mm 0.00 in0.0 mm 0.10 in2.5 mm
11:30 PM 48.7°F9.3°C 46.0°F7.8°C 90% Calm Calm 2.0 mph3.2 kmh 29.51 in999.3 mb 0.00 in0.0 mm 0.00 in0.0 mm 0.10 in2.5 mm
11:35 PM 48.7°F9.3°C 46.0°F7.8°C 90% Calm Calm 2.0 mph3.2 kmh 29.51 in999.3 mb 0.00 in0.0 mm 0.00 in0.0 mm 0.10 in2.5 mm
11:40 PM 48.7°F9.3°C 46.0°F7.8°C 90% Calm Calm 1.3 mph2.1 kmh 29.51 in999.3 mb 0.00 in0.0 mm 0.00 in0.0 mm 0.10 in2.5 mm
11:45 PM 48.7°F9.3°C 46.0°F7.8°C 90% 0.9 mph SW1.4 kmh SW 1.3 mph2.1 kmh 29.52 in999.7 mb 0.00 in0.0 mm 0.00 in0.0 mm 0.10 in2.5 mm
11:50 PM 48.7°F9.3°C 45.7°F7.6°C 89% 1.3 mph SSW2.1 kmh SSW 1.3 mph2.1 kmh 29.52 in999.7 mb 0.00 in0.0 mm 0.00 in0.0 mm 0.10 in2.5 mm
11:55 PM 48.6°F9.2°C 45.5°F7.5°C 89% 1.3 mph SSW2.1 kmh SSW 2.0 mph3.2 kmh 29.52 in999.7 mb 0.00 in0.0 mm 0.00 in0.0 mm 0.10 in2.5 mm